createdAt,value
2023-03-06T00:00:25.000Z,0
2023-03-06T00:01:41.000Z,0
2023-03-06T00:02:57.869Z,0
2023-03-06T00:04:12.000Z,0
2023-03-06T00:05:28.000Z,0
2023-03-06T00:06:43.000Z,0
2023-03-06T00:07:58.000Z,0
2023-03-06T00:09:15.392Z,0
2023-03-06T00:10:31.000Z,0
2023-03-06T00:11:47.000Z,0
2023-03-06T00:13:04.000Z,0
2023-03-06T00:14:20.000Z,0
2023-03-06T00:15:36.000Z,0
2023-03-06T00:16:52.000Z,0
2023-03-06T00:18:09.000Z,0
2023-03-06T00:19:25.687Z,0
2023-03-06T00:20:41.000Z,0
2023-03-06T00:21:58.000Z,0
2023-03-06T00:23:14.000Z,0
2023-03-06T00:24:29.000Z,0
2023-03-06T00:25:45.000Z,0
2023-03-06T00:27:02.000Z,0
2023-03-06T00:28:18.712Z,0
2023-03-06T00:29:34.000Z,0
2023-03-06T00:30:51.000Z,0
2023-03-06T00:32:07.000Z,0
2023-03-06T00:33:22.000Z,0
2023-03-06T00:34:37.000Z,0
2023-03-06T00:35:54.000Z,0
2023-03-06T00:37:10.000Z,0
2023-03-06T00:38:25.000Z,0
2023-03-06T00:39:41.000Z,0
2023-03-06T00:40:57.000Z,0
2023-03-06T00:42:13.000Z,0
2023-03-06T00:43:30.000Z,0
2023-03-06T00:44:46.000Z,0
2023-03-06T00:46:02.000Z,0
2023-03-06T00:47:18.000Z,0
2023-03-06T00:48:35.000Z,0
2023-03-06T00:49:51.000Z,0
2023-03-06T00:51:07.000Z,0
2023-03-06T00:52:24.000Z,0
2023-03-06T00:53:40.557Z,0
2023-03-06T00:54:56.000Z,0
2023-03-06T00:56:11.000Z,0
2023-03-06T00:57:28.000Z,0
2023-03-06T00:58:44.000Z,0
2023-03-06T01:00:00.000Z,0
2023-03-06T01:01:17.000Z,0
2023-03-06T01:02:33.000Z,0
2023-03-06T01:03:49.000Z,0
2023-03-06T01:05:04.000Z,0
2023-03-06T01:06:20.476Z,0
2023-03-06T01:07:36.000Z,0
2023-03-06T01:08:51.000Z,0
2023-03-06T01:10:07.000Z,0
2023-03-06T01:11:23.000Z,0
2023-03-06T01:12:39.000Z,0
2023-03-06T01:13:56.000Z,0
2023-03-06T01:15:12.000Z,0
2023-03-06T01:16:28.000Z,0
2023-03-06T01:17:44.000Z,0
2023-03-06T01:19:01.393Z,0
2023-03-06T01:20:17.000Z,0
2023-03-06T01:21:33.000Z,0
2023-03-06T01:22:50.000Z,0
2023-03-06T01:24:06.565Z,0
2023-03-06T01:25:22.848Z,0
2023-03-06T01:26:37.000Z,0
2023-03-06T01:27:54.000Z,0
2023-03-06T01:29:10.000Z,0
2023-03-06T01:30:26.000Z,0
2023-03-06T01:31:43.000Z,0
2023-03-06T01:32:59.000Z,0
2023-03-06T01:34:15.000Z,0
2023-03-06T01:35:31.000Z,0
2023-03-06T01:36:48.000Z,0
2023-03-06T01:38:04.000Z,0
2023-03-06T01:39:19.000Z,0
2023-03-06T01:40:35.348Z,0
2023-03-06T01:41:50.000Z,0
2023-03-06T01:43:05.000Z,0
2023-03-06T01:44:22.000Z,0
2023-03-06T01:45:38.000Z,0
2023-03-06T01:46:54.000Z,0
2023-03-06T01:48:10.000Z,0
2023-03-06T01:49:27.000Z,0
2023-03-06T01:50:43.687Z,0
2023-03-06T01:51:59.000Z,0
2023-03-06T01:53:16.000Z,0
2023-03-06T01:54:32.000Z,0
2023-03-06T01:55:48.000Z,0
2023-03-06T01:57:04.000Z,0
2023-03-06T01:58:21.000Z,0
2023-03-06T01:59:36.000Z,0
2023-03-06T02:00:52.000Z,0
2023-03-06T02:02:09.000Z,0
2023-03-06T02:03:25.000Z,0
2023-03-06T02:04:41.000Z,0
2023-03-06T02:05:57.000Z,0
2023-03-06T02:07:14.000Z,0
2023-03-06T02:08:30.000Z,0
2023-03-06T02:09:46.103Z,0
2023-03-06T02:11:01.000Z,0
2023-03-06T02:12:16.000Z,0
2023-03-06T02:13:31.000Z,0
2023-03-06T02:14:48.000Z,0
2023-03-06T02:16:04.000Z,0
2023-03-06T02:17:20.000Z,0
2023-03-06T02:18:36.000Z,0
2023-03-06T02:19:53.000Z,0
2023-03-06T02:21:09.000Z,0
2023-03-06T02:22:25.983Z,0
2023-03-06T02:23:42.000Z,0
2023-03-06T02:24:58.000Z,0
2023-03-06T02:26:14.000Z,0
2023-03-06T02:27:30.000Z,0
2023-03-06T02:28:47.000Z,0
2023-03-06T02:30:02.000Z,0
2023-03-06T02:31:18.000Z,0
2023-03-06T02:32:35.000Z,0
2023-03-06T02:33:51.000Z,0
2023-03-06T02:35:07.878Z,0
2023-03-06T02:36:23.000Z,0
2023-03-06T02:37:40.000Z,0
2023-03-06T02:38:55.000Z,0
2023-03-06T02:40:10.000Z,0
2023-03-06T02:41:26.375Z,0
2023-03-06T02:42:41.000Z,0
2023-03-06T02:43:57.000Z,0
2023-03-06T02:45:14.000Z,0
2023-03-06T02:46:30.000Z,0
2023-03-06T02:47:46.850Z,0
2023-03-06T02:49:02.000Z,0
2023-03-06T02:50:19.000Z,0
2023-03-06T02:51:35.000Z,0
2023-03-06T02:52:51.000Z,0
2023-03-06T02:54:08.000Z,0
2023-03-06T02:55:24.000Z,0
2023-03-06T02:56:40.000Z,0
2023-03-06T02:57:57.129Z,0
2023-03-06T02:59:12.000Z,0
2023-03-06T03:00:28.718Z,0
2023-03-06T03:01:44.000Z,0
2023-03-06T03:03:01.000Z,0
2023-03-06T03:04:17.000Z,0
2023-03-06T03:05:33.000Z,0
2023-03-06T03:06:49.000Z,0
2023-03-06T03:08:05.000Z,0
2023-03-06T03:09:20.000Z,0
2023-03-06T03:10:35.000Z,0
2023-03-06T03:11:51.000Z,0
2023-03-06T03:13:07.704Z,0
2023-03-06T03:14:23.000Z,0
2023-03-06T03:15:40.000Z,0
2023-03-06T03:16:56.559Z,0
2023-03-06T03:18:12.000Z,0
2023-03-06T03:19:28.000Z,0
2023-03-06T03:20:45.000Z,0
2023-03-06T03:22:01.000Z,0
2023-03-06T03:23:17.000Z,0
2023-03-06T03:24:34.000Z,0
2023-03-06T03:25:50.577Z,0
2023-03-06T03:27:06.000Z,0
2023-03-06T03:28:21.000Z,0
2023-03-06T03:29:38.459Z,0
2023-03-06T03:30:54.000Z,0
2023-03-06T03:32:10.000Z,0
2023-03-06T03:33:27.300Z,0
2023-03-06T03:34:43.000Z,0
2023-03-06T03:35:59.000Z,0
2023-03-06T03:37:14.000Z,0
2023-03-06T03:38:30.528Z,0
2023-03-06T03:39:46.000Z,0
2023-03-06T03:41:01.000Z,0
2023-03-06T03:42:17.000Z,0
2023-03-06T03:43:33.000Z,0
2023-03-06T03:44:49.000Z,0
2023-03-06T03:46:06.000Z,0
2023-03-06T03:47:22.000Z,0
2023-03-06T03:48:38.879Z,0
2023-03-06T03:49:54.000Z,0
2023-03-06T03:51:11.447Z,0
2023-03-06T03:52:27.000Z,0
2023-03-06T03:53:43.000Z,0
2023-03-06T03:55:00.000Z,0
2023-03-06T03:56:16.000Z,0
2023-03-06T03:57:32.000Z,0
2023-03-06T03:58:48.159Z,0
2023-03-06T04:00:04.000Z,0
2023-03-06T04:01:20.000Z,0
2023-03-06T04:02:36.000Z,0
2023-03-06T04:03:53.334Z,0
2023-03-06T04:05:08.000Z,0
2023-03-06T04:06:24.000Z,0
2023-03-06T04:07:39.000Z,0
2023-03-06T04:08:55.000Z,0
2023-03-06T04:10:10.000Z,0
2023-03-06T04:11:25.000Z,0
2023-03-06T04:12:42.000Z,0
2023-03-06T04:13:58.000Z,0
2023-03-06T04:15:14.000Z,0
2023-03-06T04:16:31.000Z,0
2023-03-06T04:17:47.000Z,0
2023-03-06T04:19:03.000Z,0
2023-03-06T04:20:19.000Z,0
2023-03-06T04:21:36.000Z,0
2023-03-06T04:22:52.000Z,0
2023-03-06T04:24:08.000Z,0
2023-03-06T04:25:25.000Z,0
2023-03-06T04:26:41.000Z,0
2023-03-06T04:27:56.000Z,0
2023-03-06T04:29:12.000Z,0
2023-03-06T04:30:29.000Z,0
2023-03-06T04:31:45.000Z,0
2023-03-06T04:33:01.000Z,0
2023-03-06T04:34:18.000Z,0
2023-03-06T04:35:34.000Z,0
2023-03-06T04:36:49.000Z,0
2023-03-06T04:38:05.000Z,0
2023-03-06T04:39:21.000Z,0
2023-03-06T04:40:37.000Z,0
2023-03-06T04:41:53.147Z,0
2023-03-06T04:43:08.000Z,0
2023-03-06T04:44:24.000Z,0
2023-03-06T04:45:40.000Z,0
2023-03-06T04:46:57.000Z,0
2023-03-06T04:48:13.000Z,0
2023-03-06T04:49:29.000Z,0
2023-03-06T04:50:45.000Z,0
2023-03-06T04:52:02.000Z,0
2023-03-06T04:53:18.000Z,0
2023-03-06T04:54:35.045Z,0
2023-03-06T04:55:51.000Z,0
2023-03-06T04:57:07.000Z,0
2023-03-06T04:58:23.000Z,0
2023-03-06T04:59:38.000Z,0
2023-03-06T05:00:55.000Z,0
2023-03-06T05:02:11.000Z,0
2023-03-06T05:03:28.074Z,0
2023-03-06T05:04:44.347Z,0
2023-03-06T05:06:00.632Z,0
2023-03-06T05:07:16.000Z,0
2023-03-06T05:08:32.000Z,0
2023-03-06T05:09:47.000Z,0
2023-03-06T05:11:03.000Z,0
2023-03-06T05:12:18.000Z,0
2023-03-06T05:13:34.000Z,0
2023-03-06T05:14:50.000Z,0
2023-03-06T05:16:06.000Z,0
2023-03-06T05:17:23.000Z,0
2023-03-06T05:18:39.592Z,0
2023-03-06T05:19:55.905Z,0
2023-03-06T05:21:11.000Z,0
2023-03-06T05:22:28.448Z,0
2023-03-06T05:23:44.000Z,0
2023-03-06T05:25:00.000Z,0
2023-03-06T05:26:17.000Z,0
2023-03-06T05:27:33.000Z,0
2023-03-06T05:28:49.000Z,0
2023-03-06T05:30:04.000Z,0
2023-03-06T05:31:21.000Z,0
2023-03-06T05:32:37.786Z,0
2023-03-06T05:33:53.000Z,0
2023-03-06T05:35:10.000Z,1
2023-03-06T05:36:26.000Z,0
2023-03-06T05:37:42.000Z,0
2023-03-06T05:38:57.000Z,0
2023-03-06T05:40:13.000Z,1
2023-03-06T05:41:28.707Z,1
2023-03-06T05:42:43.000Z,1
2023-03-06T05:44:00.000Z,0
2023-03-06T05:45:16.000Z,2
2023-03-06T05:46:32.000Z,2
2023-03-06T05:47:48.000Z,1
2023-03-06T05:49:04.000Z,1
2023-03-06T05:50:21.000Z,2
2023-03-06T05:51:37.000Z,1
2023-03-06T05:52:53.000Z,2
2023-03-06T05:54:09.000Z,2
2023-03-06T05:55:26.000Z,8
2023-03-06T05:56:42.000Z,9
2023-03-06T05:57:58.841Z,9
2023-03-06T05:59:13.000Z,9
2023-03-06T06:00:30.000Z,16
2023-03-06T06:01:46.000Z,17
2023-03-06T06:03:02.000Z,20
2023-03-06T06:04:18.000Z,23
2023-03-06T06:05:35.000Z,24
2023-03-06T06:06:51.000Z,31
2023-03-06T06:08:06.000Z,30
2023-03-06T06:09:21.000Z,31
2023-03-06T06:10:37.000Z,43
2023-03-06T06:11:54.466Z,48
2023-03-06T06:13:10.000Z,52
2023-03-06T06:14:26.000Z,61
2023-03-06T06:15:41.000Z,67
2023-03-06T06:16:58.000Z,71
2023-03-06T06:18:13.000Z,86
2023-03-06T06:19:29.000Z,86
2023-03-06T06:20:45.000Z,98
2023-03-06T06:22:02.000Z,107
2023-03-06T06:23:18.638Z,125
2023-03-06T06:24:34.000Z,153
2023-03-06T06:25:50.000Z,142
2023-03-06T06:27:07.000Z,138
2023-03-06T06:28:23.000Z,162
2023-03-06T06:29:39.000Z,192
2023-03-06T06:30:55.000Z,197
2023-03-06T06:32:12.000Z,214
2023-03-06T06:33:28.000Z,199
2023-03-06T06:34:43.000Z,245
2023-03-06T06:35:59.000Z,246
2023-03-06T06:37:15.000Z,240
2023-03-06T06:38:32.000Z,231
2023-03-06T06:39:48.000Z,241
2023-03-06T06:41:04.000Z,235
2023-03-06T06:42:19.000Z,216
2023-03-06T06:43:35.000Z,250
2023-03-06T06:44:51.709Z,308
2023-03-06T06:46:06.000Z,256
2023-03-06T06:47:21.000Z,282
2023-03-06T06:48:38.000Z,307
2023-03-06T06:49:54.000Z,283
2023-03-06T06:51:10.000Z,304
2023-03-06T06:52:26.000Z,297
2023-03-06T06:53:43.000Z,293
2023-03-06T06:54:59.000Z,274
2023-03-06T06:56:15.000Z,302
2023-03-06T06:57:31.000Z,277
2023-03-06T06:58:48.000Z,265
2023-03-06T07:00:04.000Z,244
2023-03-06T07:01:20.000Z,251
2023-03-06T07:02:36.000Z,248
2023-03-06T07:03:51.000Z,280
2023-03-06T07:05:08.000Z,302
2023-03-06T07:06:24.000Z,283
2023-03-06T07:07:40.000Z,295
2023-03-06T07:08:56.000Z,309
2023-03-06T07:10:13.000Z,292
2023-03-06T07:11:29.000Z,307
2023-03-06T07:12:44.000Z,267
2023-03-06T07:14:00.121Z,285
2023-03-06T07:15:16.000Z,279
2023-03-06T07:16:31.000Z,281
2023-03-06T07:17:46.000Z,257
2023-03-06T07:19:02.000Z,229
2023-03-06T07:20:19.352Z,245
2023-03-06T07:21:35.000Z,227
2023-03-06T07:22:51.000Z,190
2023-03-06T07:24:07.000Z,200
2023-03-06T07:25:24.000Z,184
2023-03-06T07:26:40.000Z,259
2023-03-06T07:27:56.000Z,352
2023-03-06T07:29:12.000Z,331
2023-03-06T07:30:28.000Z,326
2023-03-06T07:31:45.000Z,320
2023-03-06T07:33:01.000Z,307
2023-03-06T07:34:16.000Z,345
2023-03-06T07:35:32.000Z,315
2023-03-06T07:36:49.000Z,314
2023-03-06T07:38:05.000Z,321
2023-03-06T07:39:21.000Z,333
2023-03-06T07:40:37.000Z,359
2023-03-06T07:41:54.000Z,316
2023-03-06T07:43:09.000Z,283
2023-03-06T07:44:24.000Z,283
2023-03-06T07:45:39.000Z,264
2023-03-06T07:46:55.000Z,208
2023-03-06T07:48:11.000Z,264
2023-03-06T07:49:28.026Z,312
2023-03-06T07:50:43.000Z,276
2023-03-06T07:52:00.283Z,263
2023-03-06T07:53:16.000Z,208
2023-03-06T07:54:32.000Z,227
2023-03-06T07:55:48.000Z,279
2023-03-06T07:57:04.000Z,366
2023-03-06T07:58:21.000Z,331
2023-03-06T07:59:37.000Z,339
2023-03-06T08:00:53.000Z,302
2023-03-06T08:02:09.000Z,284
2023-03-06T08:03:25.000Z,350
2023-03-06T08:04:41.000Z,397
2023-03-06T08:05:57.000Z,660
2023-03-06T08:07:13.000Z,763
2023-03-06T08:08:30.000Z,642
2023-03-06T08:09:46.589Z,471
2023-03-06T08:11:02.000Z,324
2023-03-06T08:12:17.000Z,232
2023-03-06T08:13:33.000Z,365
2023-03-06T08:14:48.000Z,577
2023-03-06T08:16:03.000Z,1025
2023-03-06T08:18:36.000Z,709
2023-03-06T08:19:51.000Z,516
2023-03-06T08:21:07.000Z,537
2023-03-06T08:22:23.000Z,487
2023-03-06T08:23:40.000Z,531
2023-03-06T08:24:56.000Z,685
2023-03-06T08:26:12.000Z,750
2023-03-06T08:27:28.000Z,617
2023-03-06T08:28:45.208Z,517
2023-03-06T08:30:01.000Z,461
2023-03-06T08:31:17.000Z,401
2023-03-06T08:32:33.000Z,525
2023-03-06T08:33:49.000Z,462
2023-03-06T08:35:06.000Z,387
2023-03-06T08:36:21.000Z,550
2023-03-06T08:37:37.000Z,757
2023-03-06T08:38:53.000Z,594
2023-03-06T08:40:10.000Z,679
2023-03-06T08:41:26.000Z,506
2023-03-06T08:42:42.802Z,540
2023-03-06T08:43:58.000Z,500
2023-03-06T08:45:15.261Z,720
2023-03-06T08:46:31.000Z,533
2023-03-06T08:47:47.000Z,412
2023-03-06T08:49:03.000Z,341
2023-03-06T08:50:19.000Z,278
2023-03-06T08:51:36.000Z,240
2023-03-06T08:52:51.000Z,214
2023-03-06T08:54:07.000Z,288
2023-03-06T08:55:22.000Z,239
2023-03-06T08:56:38.000Z,211
2023-03-06T08:57:54.000Z,223
2023-03-06T08:59:10.000Z,124
2023-03-06T09:00:26.000Z,486
2023-03-06T09:01:43.358Z,699
2023-03-06T09:02:59.000Z,777
2023-03-06T09:04:15.000Z,708
2023-03-06T09:05:31.000Z,442
2023-03-06T09:06:48.000Z,667
2023-03-06T09:08:04.000Z,1205
2023-03-06T09:09:20.776Z,1315
2023-03-06T09:10:36.000Z,1018
2023-03-06T09:11:52.000Z,698
2023-03-06T09:13:08.487Z,532
2023-03-06T09:14:24.000Z,440
2023-03-06T09:15:40.000Z,552
2023-03-06T09:16:56.000Z,734
2023-03-06T09:18:13.000Z,814
2023-03-06T09:19:29.000Z,730
2023-03-06T09:22:01.000Z,870
2023-03-06T09:23:17.000Z,955
2023-03-06T09:24:32.000Z,1013
2023-03-06T09:25:48.000Z,1090
2023-03-06T09:27:05.081Z,1109
2023-03-06T09:28:21.000Z,1021
2023-03-06T09:29:37.000Z,1087
2023-03-06T09:30:53.000Z,1121
2023-03-06T09:32:09.000Z,1070
2023-03-06T09:33:26.000Z,1152
2023-03-06T09:34:42.000Z,1101
2023-03-06T09:35:58.000Z,1035
2023-03-06T09:37:14.000Z,1032
2023-03-06T09:38:30.000Z,1043
2023-03-06T09:39:47.000Z,1027
2023-03-06T09:41:02.000Z,1041
2023-03-06T09:42:18.000Z,1032
2023-03-06T09:43:34.000Z,1033
2023-03-06T09:44:51.000Z,1016
2023-03-06T09:46:07.000Z,1111
2023-03-06T09:47:23.000Z,1368
2023-03-06T09:48:39.000Z,1634
2023-03-06T09:49:55.000Z,1743
2023-03-06T09:51:10.000Z,1774
2023-03-06T09:52:25.858Z,1794
2023-03-06T09:53:40.000Z,1756
2023-03-06T09:54:57.000Z,1601
2023-03-06T09:56:13.000Z,1550
2023-03-06T09:57:29.000Z,1506
2023-03-06T09:58:46.023Z,1431
2023-03-06T10:00:02.000Z,1496
2023-03-06T10:01:18.569Z,1534
2023-03-06T10:02:34.000Z,1513
2023-03-06T10:03:50.000Z,1449
2023-03-06T10:05:06.000Z,1343
2023-03-06T10:06:23.000Z,1400
2023-03-06T10:07:39.000Z,1483
2023-03-06T10:08:55.000Z,1462
2023-03-06T10:10:11.160Z,1541
2023-03-06T10:11:27.000Z,1396
2023-03-06T10:12:43.000Z,1374
2023-03-06T10:13:59.000Z,1443
2023-03-06T10:15:15.000Z,1761
2023-03-06T10:16:32.000Z,1833
2023-03-06T10:17:48.000Z,1750
2023-03-06T10:19:03.000Z,1612
2023-03-06T10:20:18.000Z,1397
2023-03-06T10:21:35.000Z,9834
2023-03-06T10:22:51.000Z,3216
2023-03-06T10:24:06.000Z,7787
2023-03-06T10:25:21.000Z,3076
2023-03-06T10:26:38.000Z,4095
2023-03-06T10:27:54.000Z,21411
2023-03-06T10:29:10.000Z,9654
2023-03-06T10:30:26.000Z,7087
2023-03-06T10:31:42.000Z,3609
2023-03-06T10:32:59.000Z,23135
2023-03-06T10:34:15.000Z,5992
2023-03-06T10:35:31.000Z,78361
2023-03-06T10:36:48.150Z,60232
2023-03-06T10:38:04.000Z,9621
2023-03-06T10:39:20.627Z,3795
2023-03-06T10:40:36.000Z,31463
2023-03-06T10:41:51.000Z,8199
2023-03-06T10:43:08.000Z,81868
2023-03-06T10:44:24.000Z,75978
2023-03-06T10:45:40.000Z,66481
2023-03-06T10:46:56.000Z,9772
2023-03-06T10:48:13.000Z,78174
2023-03-06T10:49:29.519Z,78947
2023-03-06T10:50:45.000Z,76960
2023-03-06T10:52:00.000Z,77896
2023-03-06T10:53:15.000Z,78714
2023-03-06T10:54:32.000Z,71395
2023-03-06T10:55:47.000Z,35800
2023-03-06T10:57:02.000Z,8007
2023-03-06T10:58:18.000Z,60899
2023-03-06T10:59:35.000Z,11577
2023-03-06T11:00:51.000Z,6451
2023-03-06T11:02:07.930Z,11116
2023-03-06T11:03:23.000Z,13124
2023-03-06T11:04:40.000Z,6980
2023-03-06T11:05:56.000Z,6402
2023-03-06T11:07:12.880Z,4133
2023-03-06T11:08:28.000Z,7366
2023-03-06T11:09:45.319Z,4046
2023-03-06T11:11:01.559Z,3979
2023-03-06T11:12:17.788Z,3018
2023-03-06T11:13:32.000Z,3662
2023-03-06T11:14:49.276Z,3465
2023-03-06T11:16:05.000Z,1925
2023-03-06T11:17:21.000Z,8915
2023-03-06T11:18:37.000Z,2866
2023-03-06T11:19:53.000Z,23865
2023-03-06T11:21:10.000Z,20829
2023-03-06T11:22:25.000Z,12499
2023-03-06T11:23:40.000Z,9793
2023-03-06T11:24:56.000Z,7130
2023-03-06T11:26:13.000Z,7229
2023-03-06T11:27:29.000Z,4493
2023-03-06T11:28:45.000Z,76151
2023-03-06T11:30:01.000Z,80083
2023-03-06T11:31:17.363Z,80570
2023-03-06T11:32:32.000Z,77203
2023-03-06T11:33:48.000Z,82016
2023-03-06T11:35:04.000Z,73930
2023-03-06T11:36:21.000Z,62058
2023-03-06T11:37:37.000Z,14472
2023-03-06T11:38:53.000Z,79677
2023-03-06T11:40:09.000Z,62613
2023-03-06T11:41:26.000Z,7629
2023-03-06T11:42:42.000Z,59385
2023-03-06T11:43:58.000Z,11745
2023-03-06T11:45:14.000Z,6895
2023-03-06T11:46:30.000Z,15935
2023-03-06T11:47:47.000Z,9481
2023-03-06T11:49:02.000Z,11851
2023-03-06T11:50:18.000Z,12630
2023-03-06T11:51:34.000Z,9758
2023-03-06T11:52:51.000Z,13265
2023-03-06T11:54:07.591Z,8594
2023-03-06T11:55:23.000Z,8607
2023-03-06T11:56:39.000Z,7218
2023-03-06T11:57:55.000Z,6543
2023-03-06T11:59:11.000Z,6482
2023-03-06T12:00:26.000Z,7138
2023-03-06T12:01:42.000Z,8343
2023-03-06T12:02:59.000Z,7035
2023-03-06T12:04:14.000Z,7463
2023-03-06T12:05:30.000Z,7420
2023-03-06T12:06:46.000Z,9000
2023-03-06T12:08:03.000Z,8654
2023-03-06T12:09:19.000Z,8349
2023-03-06T12:10:35.000Z,8132
2023-03-06T12:11:51.000Z,6866
2023-03-06T12:13:08.000Z,5680
2023-03-06T12:14:24.000Z,4283
2023-03-06T12:15:40.000Z,3777
2023-03-06T12:16:56.000Z,4398
2023-03-06T12:18:12.000Z,3650
2023-03-06T12:19:29.474Z,3401
2023-03-06T12:20:44.000Z,6544
2023-03-06T12:22:00.000Z,10104
2023-03-06T12:23:16.000Z,6290
2023-03-06T12:24:33.000Z,5867
2023-03-06T12:25:49.000Z,5031
2023-03-06T12:27:05.000Z,4430
2023-03-06T12:28:21.000Z,3539
2023-03-06T12:29:38.000Z,1638
2023-03-06T12:32:10.000Z,8413
2023-03-06T12:33:26.000Z,64142
2023-03-06T12:34:43.000Z,17770
2023-03-06T12:35:59.000Z,8360
2023-03-06T12:37:14.000Z,5701
2023-03-06T12:38:29.000Z,4290
2023-03-06T12:39:46.000Z,3528
2023-03-06T12:41:01.000Z,3100
2023-03-06T12:42:16.000Z,2608
2023-03-06T12:43:32.000Z,2501
2023-03-06T12:44:48.000Z,2483
2023-03-06T12:46:05.000Z,2273
2023-03-06T12:47:21.000Z,1910
2023-03-06T12:48:37.000Z,1750
2023-03-06T12:49:53.000Z,1706
2023-03-06T12:51:10.402Z,1718
2023-03-06T12:52:26.655Z,1706
2023-03-06T12:53:42.000Z,1603
2023-03-06T12:54:59.119Z,1437
2023-03-06T12:56:15.000Z,1336
2023-03-06T12:57:31.000Z,1152
2023-03-06T12:58:46.000Z,1050
2023-03-06T13:00:02.000Z,864
2023-03-06T13:01:19.000Z,797
2023-03-06T13:02:35.521Z,730
2023-03-06T13:03:51.000Z,691
2023-03-06T13:05:07.000Z,655
2023-03-06T13:06:23.000Z,666
2023-03-06T13:07:39.497Z,625
2023-03-06T13:10:10.000Z,558
2023-03-06T13:11:26.000Z,553
2023-03-06T13:12:42.000Z,589
2023-03-06T13:13:57.000Z,589
2023-03-06T13:15:13.000Z,547
2023-03-06T13:16:29.000Z,542
2023-03-06T13:17:46.000Z,588
2023-03-06T13:19:02.000Z,650
2023-03-06T13:20:18.000Z,681
2023-03-06T13:21:35.096Z,762
2023-03-06T13:22:51.000Z,788
2023-03-06T13:24:07.000Z,786
2023-03-06T13:25:23.000Z,868
2023-03-06T13:26:39.000Z,905
2023-03-06T13:27:56.000Z,864
2023-03-06T13:29:12.000Z,876
2023-03-06T13:30:27.000Z,857
2023-03-06T13:31:43.000Z,846
2023-03-06T13:32:59.000Z,918
2023-03-06T13:34:16.000Z,944
2023-03-06T13:35:32.000Z,998
2023-03-06T13:36:48.000Z,1065
2023-03-06T13:38:04.000Z,1098
2023-03-06T13:39:20.000Z,1073
2023-03-06T13:40:35.000Z,1051
2023-03-06T13:41:50.000Z,1058
2023-03-06T13:43:05.000Z,1021
2023-03-06T13:44:22.452Z,845
2023-03-06T13:45:38.000Z,952
2023-03-06T13:48:10.000Z,14724
2023-03-06T13:49:27.000Z,10278
2023-03-06T13:50:43.000Z,4097
2023-03-06T13:51:59.000Z,2782
2023-03-06T13:53:15.000Z,2160
2023-03-06T13:54:32.000Z,1688
2023-03-06T13:55:48.000Z,1565
2023-03-06T13:57:04.000Z,1458
2023-03-06T13:58:20.000Z,1499
2023-03-06T13:59:36.000Z,1485
2023-03-06T14:00:52.000Z,1432
2023-03-06T14:02:08.000Z,1531
2023-03-06T14:03:24.000Z,1481
2023-03-06T14:04:40.000Z,1688
2023-03-06T14:05:57.000Z,1549
2023-03-06T14:07:13.000Z,1504
2023-03-06T14:08:29.000Z,1535
2023-03-06T14:09:44.000Z,1652
2023-03-06T14:11:00.000Z,1593
2023-03-06T14:12:16.000Z,1522
2023-03-06T14:13:32.000Z,1535
2023-03-06T14:14:48.000Z,1704
2023-03-06T14:16:05.000Z,1769
2023-03-06T14:17:21.000Z,1831
2023-03-06T14:18:36.000Z,1927
2023-03-06T14:19:51.000Z,1938
2023-03-06T14:21:08.000Z,1820
2023-03-06T14:22:24.000Z,2201
2023-03-06T14:23:40.000Z,2058
2023-03-06T14:26:12.000Z,2501
2023-03-06T14:27:29.000Z,2541
2023-03-06T14:28:45.695Z,2557
2023-03-06T14:30:01.000Z,2423
2023-03-06T14:31:18.174Z,2463
2023-03-06T14:32:34.000Z,2389
2023-03-06T14:33:50.000Z,2343
2023-03-06T14:35:06.000Z,2315
2023-03-06T14:36:22.120Z,2390
2023-03-06T14:37:38.000Z,2546
2023-03-06T14:38:54.000Z,2325
2023-03-06T14:40:10.000Z,2208
2023-03-06T14:41:26.000Z,2099
2023-03-06T14:42:43.000Z,2004
2023-03-06T14:43:59.531Z,1846
2023-03-06T14:45:15.000Z,1762
2023-03-06T14:46:31.000Z,1665
2023-03-06T14:47:47.000Z,1538
2023-03-06T14:49:04.000Z,1362
2023-03-06T14:50:20.000Z,1211
2023-03-06T14:51:36.898Z,1244
2023-03-06T14:52:51.000Z,1351
2023-03-06T14:54:08.000Z,1533
2023-03-06T14:55:24.000Z,1651
2023-03-06T14:56:40.000Z,1796
2023-03-06T14:57:56.000Z,1883
2023-03-06T14:59:13.000Z,1851
2023-03-06T15:00:29.000Z,1703
2023-03-06T15:01:45.000Z,1775
2023-03-06T15:03:02.020Z,1822
2023-03-06T15:04:18.000Z,1836
2023-03-06T15:05:34.000Z,1944
2023-03-06T15:06:50.741Z,1977
2023-03-06T15:08:06.000Z,2009
2023-03-06T15:09:21.000Z,2092
2023-03-06T15:10:38.000Z,2015
2023-03-06T15:11:54.000Z,2042
2023-03-06T15:13:10.000Z,1919
2023-03-06T15:14:27.132Z,1930
2023-03-06T15:16:59.000Z,1828
2023-03-06T15:18:15.842Z,1874
2023-03-06T15:19:31.000Z,1861
2023-03-06T15:20:48.000Z,1864
2023-03-06T15:22:04.000Z,1761
2023-03-06T15:23:20.000Z,1885
2023-03-06T15:24:37.000Z,1821
2023-03-06T15:25:52.000Z,1840
2023-03-06T15:27:08.000Z,1877
2023-03-06T15:28:23.000Z,1790
2023-03-06T15:29:38.000Z,1633
2023-03-06T15:30:54.000Z,1539
2023-03-06T15:32:11.000Z,1498
2023-03-06T15:33:27.000Z,1493
2023-03-06T15:34:42.000Z,1471
2023-03-06T15:35:57.000Z,1429
2023-03-06T15:37:14.000Z,1434
2023-03-06T15:38:30.700Z,1413
2023-03-06T15:39:46.000Z,1366
2023-03-06T15:41:03.167Z,1423
2023-03-06T15:42:19.000Z,1475
2023-03-06T15:43:35.000Z,1484
2023-03-06T15:44:51.000Z,1510
2023-03-06T15:46:07.000Z,1492
2023-03-06T15:47:24.000Z,1448
2023-03-06T15:48:40.000Z,1441
2023-03-06T15:49:56.000Z,1440
2023-03-06T15:51:12.000Z,1447
2023-03-06T15:52:28.000Z,1475
2023-03-06T15:53:44.491Z,1526
2023-03-06T15:55:00.000Z,1579
2023-03-06T15:56:16.000Z,1636
2023-03-06T15:57:32.000Z,1657
2023-03-06T15:58:49.000Z,1630
2023-03-06T16:00:05.000Z,1570
2023-03-06T16:01:20.000Z,1496
2023-03-06T16:02:35.000Z,1454
2023-03-06T16:03:52.000Z,1411
2023-03-06T16:05:08.000Z,1353
2023-03-06T16:07:39.000Z,1210
2023-03-06T16:08:55.000Z,1177
2023-03-06T16:10:10.000Z,1161
2023-03-06T16:11:26.892Z,1179
2023-03-06T16:12:42.000Z,1191
2023-03-06T16:13:59.000Z,1179
2023-03-06T16:15:15.000Z,1162
2023-03-06T16:16:31.000Z,1132
2023-03-06T16:17:47.000Z,1099
2023-03-06T16:19:04.000Z,1086
2023-03-06T16:20:20.000Z,1084
2023-03-06T16:21:36.000Z,1063
2023-03-06T16:22:52.000Z,1033
2023-03-06T16:24:09.224Z,990
2023-03-06T16:25:25.000Z,940
2023-03-06T16:26:40.000Z,919
2023-03-06T16:27:56.929Z,886
2023-03-06T16:29:12.000Z,850
2023-03-06T16:30:29.000Z,824
2023-03-06T16:31:45.000Z,790
2023-03-06T16:33:01.000Z,754
2023-03-06T16:34:17.000Z,721
2023-03-06T16:35:34.000Z,694
2023-03-06T16:36:49.000Z,662
2023-03-06T16:38:04.000Z,626
2023-03-06T16:39:20.000Z,595
2023-03-06T16:40:37.000Z,558
2023-03-06T16:41:53.000Z,526
2023-03-06T16:43:09.000Z,490
2023-03-06T16:44:25.048Z,460
2023-03-06T16:45:40.000Z,442
2023-03-06T16:46:56.000Z,417
2023-03-06T16:48:12.000Z,396
2023-03-06T16:49:28.000Z,381
2023-03-06T16:50:45.217Z,360
2023-03-06T16:52:00.000Z,335
2023-03-06T16:53:16.000Z,326
2023-03-06T16:54:32.000Z,307
2023-03-06T16:55:49.185Z,288
2023-03-06T16:58:21.000Z,249
2023-03-06T16:59:37.000Z,234
2023-03-06T17:00:53.000Z,213
2023-03-06T17:02:10.000Z,203
2023-03-06T17:03:26.000Z,194
2023-03-06T17:04:42.000Z,185
2023-03-06T17:05:58.000Z,177
2023-03-06T17:07:15.000Z,164
2023-03-06T17:08:30.000Z,153
2023-03-06T17:09:46.000Z,143
2023-03-06T17:11:02.000Z,128
2023-03-06T17:12:18.000Z,117
2023-03-06T17:13:35.000Z,107
2023-03-06T17:14:51.000Z,98
2023-03-06T17:16:07.000Z,83
2023-03-06T17:17:23.000Z,72
2023-03-06T17:18:40.000Z,62
2023-03-06T17:19:56.000Z,52
2023-03-06T17:21:12.000Z,45
2023-03-06T17:23:44.000Z,34
2023-03-06T17:24:59.000Z,28
2023-03-06T17:26:14.000Z,23
2023-03-06T17:27:30.000Z,19
2023-03-06T17:28:46.000Z,17
2023-03-06T17:30:01.000Z,14
2023-03-06T17:31:17.000Z,11
2023-03-06T17:32:33.000Z,9
2023-03-06T17:33:50.000Z,8
2023-03-06T17:36:22.000Z,3
2023-03-06T17:37:38.000Z,2
2023-03-06T17:38:55.000Z,2
2023-03-06T17:40:11.000Z,1
2023-03-06T17:41:27.000Z,1
2023-03-06T17:42:43.000Z,1
2023-03-06T17:43:59.000Z,0
2023-03-06T17:45:16.000Z,0
2023-03-06T17:46:31.000Z,0
2023-03-06T17:47:47.000Z,0
2023-03-06T17:49:04.000Z,0
2023-03-06T17:50:20.000Z,0
2023-03-06T17:51:36.000Z,0
2023-03-06T17:52:53.000Z,0
2023-03-06T17:54:09.000Z,0